Terminal Aerodrome Forecast
Issued by NWS

Home | Current Version | Previous Version | Text Only | Print | Product List | Glossary On
Versions: 1 2 3 4 5 6 7 8 9 10 11 12 13 14 15 16 17 18 19
000
FTAK31 PAFA 271725
TAFABT
TAF
PABT 271725Z 2718/2818 00000KT P6SM FEW012 OVC045
     FM280800 VRB03KT P6SM FEW060 SCT100 SCT200
     FM281200 15011G17KT 4SM -SN BR OVC015
     FM281500 06008G17KT 1 1/2SM -SN BR OVC015=

USA.gov is the U.S. government's official web portal to all federal, state and local government web resources and services.